sensor_id;sensor_type;location;lat;lon;timestamp;pressure;altitude;pressure_sealevel;temperature;humidity
9281;BME280;4679;47.966;7.958;2023-04-23T06:11:53;96606.81;;;11.26;81.55
9281;BME280;4679;47.966;7.958;2023-04-23T06:13:54;96607.34;;;11.33;81.75
9281;BME280;4679;47.966;7.958;2023-04-23T06:15:56;96609.50;;;11.41;81.54
9281;BME280;4679;47.966;7.958;2023-04-23T06:17:58;96603.94;;;11.48;82.02
9281;BME280;4679;47.966;7.958;2023-04-23T06:20:00;96590.69;;;11.53;81.05
9281;BME280;4679;47.966;7.958;2023-04-23T06:22:04;96592.56;;;11.57;81.24
9281;BME280;4679;47.966;7.958;2023-04-23T06:24:06;96598.13;;;11.61;81.49
9281;BME280;4679;47.966;7.958;2023-04-23T06:26:08;96594.41;;;11.62;81.77
9281;BME280;4679;47.966;7.958;2023-04-23T06:28:11;96592.28;;;11.64;81.33
9281;BME280;4679;47.966;7.958;2023-04-23T06:30:13;96598.94;;;11.67;81.95
9281;BME280;4679;47.966;7.958;2023-04-23T06:32:14;96595.75;;;11.70;81.24
9281;BME280;4679;47.966;7.958;2023-04-23T06:34:16;96589.44;;;11.76;80.88
9281;BME280;4679;47.966;7.958;2023-04-23T06:36:18;96599.00;;;11.82;81.59
9281;BME280;4679;47.966;7.958;2023-04-23T06:38:19;96587.31;;;11.88;81.08
9281;BME280;4679;47.966;7.958;2023-04-23T06:40:22;96578.81;;;11.91;81.03
9281;BME280;4679;47.966;7.958;2023-04-23T06:42:24;96574.00;;;11.93;80.66
9281;BME280;4679;47.966;7.958;2023-04-23T06:44:27;96571.09;;;11.94;80.37
9281;BME280;4679;47.966;7.958;2023-04-23T06:46:28;96578.00;;;11.95;80.62
9281;BME280;4679;47.966;7.958;2023-04-23T06:48:30;96571.88;;;11.95;81.10
9281;BME280;4679;47.966;7.958;2023-04-23T06:50:32;96577.75;;;11.97;80.50
9281;BME280;4679;47.966;7.958;2023-04-23T06:52:33;96574.81;;;11.98;80.90
9281;BME280;4679;47.966;7.958;2023-04-23T06:54:35;96574.28;;;12.02;80.38
9281;BME280;4679;47.966;7.958;2023-04-23T06:56:37;96574.84;;;12.04;81.21
9281;BME280;4679;47.966;7.958;2023-04-23T06:58:39;96568.69;;;12.08;80.58
9281;BME280;4679;47.966;7.958;2023-04-23T07:00:42;96566.59;;;12.15;80.49
9281;BME280;4679;47.966;7.958;2023-04-23T07:02:43;96559.41;;;12.21;80.41
9281;BME280;4679;47.966;7.958;2023-04-23T07:04:45;96559.91;;;12.28;79.79
9281;BME280;4679;47.966;7.958;2023-04-23T07:06:47;96560.19;;;12.31;80.40
9281;BME280;4679;47.966;7.958;2023-04-23T07:08:48;96549.53;;;12.31;80.67
9281;BME280;4679;47.966;7.958;2023-04-23T07:10:50;96547.41;;;12.33;80.04
9281;BME280;4679;47.966;7.958;2023-04-23T07:12:52;96541.56;;;12.37;79.60
9281;BME280;4679;47.966;7.958;2023-04-23T07:14:54;96548.72;;;12.41;80.43
9281;BME280;4679;47.966;7.958;2023-04-23T07:16:57;96540.22;;;12.49;79.45
9281;BME280;4679;47.966;7.958;2023-04-23T07:18:59;96535.66;;;12.60;79.00
9281;BME280;4679;47.966;7.958;2023-04-23T07:21:01;96530.84;;;12.67;78.99
9281;BME280;4679;47.966;7.958;2023-04-23T07:23:03;96538.53;;;12.79;79.11
9281;BME280;4679;47.966;7.958;2023-04-23T07:25:05;96537.94;;;12.87;78.83
9281;BME280;4679;47.966;7.958;2023-04-23T07:27:08;96535.81;;;12.94;78.21
9281;BME280;4679;47.966;7.958;2023-04-23T07:29:09;96532.59;;;12.97;78.22
9281;BME280;4679;47.966;7.958;2023-04-23T07:31:13;96519.50;;;13.06;78.15
9281;BME280;4679;47.966;7.958;2023-04-23T07:33:16;96518.69;;;13.15;77.76
9281;BME280;4679;47.966;7.958;2023-04-23T07:35:18;96516.53;;;13.22;77.76
9281;BME280;4679;47.966;7.958;2023-04-23T07:37:20;96510.59;;;13.30;77.17
9281;BME280;4679;47.966;7.958;2023-04-23T07:39:22;96513.50;;;13.39;76.73
9281;BME280;4679;47.966;7.958;2023-04-23T07:41:23;96506.75;;;13.52;76.37
9281;BME280;4679;47.966;7.958;2023-04-23T07:43:25;96504.59;;;13.59;76.17
9281;BME280;4679;47.966;7.958;2023-04-23T07:45:27;96501.59;;;13.65;75.81
9281;BME280;4679;47.966;7.958;2023-04-23T07:47:28;96511.16;;;13.71;75.67
9281;BME280;4679;47.966;7.958;2023-04-23T07:49:31;96520.09;;;13.86;75.15
9281;BME280;4679;47.966;7.958;2023-04-23T07:51:33;96516.56;;;13.95;75.07
9281;BME280;4679;47.966;7.958;2023-04-23T07:53:35;96513.22;;;14.08;74.66
9281;BME280;4679;47.966;7.958;2023-04-23T07:55:37;96519.09;;;14.11;74.42
9281;BME280;4679;47.966;7.958;2023-04-23T07:57:38;96515.84;;;14.19;74.42
9281;BME280;4679;47.966;7.958;2023-04-23T07:59:40;96517.50;;;14.38;74.29
9281;BME280;4679;47.966;7.958;2023-04-23T08:01:42;96510.50;;;14.48;73.99
9281;BME280;4679;47.966;7.958;2023-04-23T08:03:44;96509.19;;;14.45;73.80
9281;BME280;4679;47.966;7.958;2023-04-23T08:05:47;96510.91;;;14.31;73.71
9281;BME280;4679;47.966;7.958;2023-04-23T08:07:49;96507.75;;;14.24;73.68
9281;BME280;4679;47.966;7.958;2023-04-23T08:09:50;96508.75;;;14.33;72.96
9281;BME280;4679;47.966;7.958;2023-04-23T08:11:52;96507.41;;;14.35;72.80
9281;BME280;4679;47.966;7.958;2023-04-23T08:13:54;96503.06;;;14.39;72.36
9281;BME280;4679;47.966;7.958;2023-04-23T08:15:56;96494.25;;;14.39;72.63
9281;BME280;4679;47.966;7.958;2023-04-23T08:17:57;96499.03;;;14.47;72.17
9281;BME280;4679;47.966;7.958;2023-04-23T08:20:00;96493.06;;;14.55;71.73
9281;BME280;4679;47.966;7.958;2023-04-23T08:22:04;96490.94;;;14.52;71.88
9281;BME280;4679;47.966;7.958;2023-04-23T08:24:06;96490.63;;;14.59;71.23
9281;BME280;4679;47.966;7.958;2023-04-23T08:26:08;96485.75;;;14.66;70.49
9281;BME280;4679;47.966;7.958;2023-04-23T08:28:10;96484.47;;;14.82;70.53
9281;BME280;4679;47.966;7.958;2023-04-23T08:30:12;96481.16;;;14.90;69.97
9281;BME280;4679;47.966;7.958;2023-04-23T08:32:14;96471.41;;;14.99;69.84
9281;BME280;4679;47.966;7.958;2023-04-23T08:34:16;96491.72;;;15.00;69.04
9281;BME280;4679;47.966;7.958;2023-04-23T08:36:17;96473.38;;;15.12;68.81
9281;BME280;4679;47.966;7.958;2023-04-23T08:38:21;96465.72;;;15.43;68.43
9281;BME280;4679;47.966;7.958;2023-04-23T08:40:22;96463.97;;;15.58;68.09
9281;BME280;4679;47.966;7.958;2023-04-23T08:42:31;96465.66;;;15.67;67.50
9281;BME280;4679;47.966;7.958;2023-04-23T08:44:40;96469.06;;;15.73;67.27
9281;BME280;4679;47.966;7.958;2023-04-23T08:46:43;96465.84;;;15.57;67.79
9281;BME280;4679;47.966;7.958;2023-04-23T08:48:45;96458.00;;;15.61;67.92
9281;BME280;4679;47.966;7.958;2023-04-23T08:50:48;96455.03;;;15.43;67.71
9281;BME280;4679;47.966;7.958;2023-04-23T08:52:52;96455.84;;;15.63;66.64
9281;BME280;4679;47.966;7.958;2023-04-23T08:54:59;96457.22;;;15.60;67.03
9281;BME280;4679;47.966;7.958;2023-04-23T08:57:01;96457.34;;;15.69;66.84
9281;BME280;4679;47.966;7.958;2023-04-23T08:59:03;96453.31;;;15.71;66.43
9281;BME280;4679;47.966;7.958;2023-04-23T09:01:05;96448.06;;;15.80;65.86
9281;BME280;4679;47.966;7.958;2023-04-23T09:03:07;96445.00;;;15.73;65.86
9281;BME280;4679;47.966;7.958;2023-04-23T09:05:09;96438.50;;;15.60;66.09
9281;BME280;4679;47.966;7.958;2023-04-23T09:07:11;96443.59;;;15.75;65.59
9281;BME280;4679;47.966;7.958;2023-04-23T09:09:15;96432.75;;;15.99;65.07
9281;BME280;4679;47.966;7.958;2023-04-23T09:11:19;96430.25;;;15.89;65.83
9281;BME280;4679;47.966;7.958;2023-04-23T09:13:22;96437.00;;;15.87;66.00
9281;BME280;4679;47.966;7.958;2023-04-23T09:15:24;96429.59;;;15.97;65.00
9281;BME280;4679;47.966;7.958;2023-04-23T09:17:27;96421.06;;;15.95;64.89
9281;BME280;4679;47.966;7.958;2023-04-23T09:19:29;96435.09;;;15.73;65.33
9281;BME280;4679;47.966;7.958;2023-04-23T09:21:32;96426.00;;;15.88;64.58
9281;BME280;4679;47.966;7.958;2023-04-23T09:23:38;96419.34;;;15.86;64.78
9281;BME280;4679;47.966;7.958;2023-04-23T09:25:41;96421.13;;;15.90;63.99
9281;BME280;4679;47.966;7.958;2023-04-23T09:27:45;96424.03;;;15.94;64.18
9281;BME280;4679;47.966;7.958;2023-04-23T09:29:48;96402.13;;;16.05;64.19
9281;BME280;4679;47.966;7.958;2023-04-23T09:31:54;96399.56;;;16.14;63.70
9281;BME280;4679;47.966;7.958;2023-04-23T09:33:57;96402.16;;;16.19;63.66
9281;BME280;4679;47.966;7.958;2023-04-23T09:36:04;96398.28;;;16.11;63.79
9281;BME280;4679;47.966;7.958;2023-04-23T09:38:06;96395.22;;;16.18;63.13
9281;BME280;4679;47.966;7.958;2023-04-23T09:40:12;96396.31;;;16.31;63.38
9281;BME280;4679;47.966;7.958;2023-04-23T09:42:14;96397.28;;;16.21;62.70
9281;BME280;4679;47.966;7.958;2023-04-23T09:44:18;96395.59;;;16.25;63.39
9281;BME280;4679;47.966;7.958;2023-04-23T09:46:34;96389.66;;;16.28;62.94
9281;BME280;4679;47.966;7.958;2023-04-23T09:48:39;96386.91;;;16.33;63.01
9281;BME280;4679;47.966;7.958;2023-04-23T09:50:41;96385.69;;;16.39;62.07
9281;BME280;4679;47.966;7.958;2023-04-23T09:52:43;96385.19;;;16.51;61.75
9281;BME280;4679;47.966;7.958;2023-04-23T09:54:45;96382.59;;;16.60;61.78
9281;BME280;4679;47.966;7.958;2023-04-23T09:56:49;96381.13;;;16.67;61.34
9281;BME280;4679;47.966;7.958;2023-04-23T09:58:50;96380.13;;;16.77;61.24
9281;BME280;4679;47.966;7.958;2023-04-23T10:01:05;96380.88;;;16.91;61.22
9281;BME280;4679;47.966;7.958;2023-04-23T10:03:07;96379.84;;;17.01;61.10
9281;BME280;4679;47.966;7.958;2023-04-23T10:05:14;96386.13;;;16.96;61.33
9281;BME280;4679;47.966;7.958;2023-04-23T10:07:16;96382.44;;;17.06;61.04
9281;BME280;4679;47.966;7.958;2023-04-23T10:09:18;96374.88;;;17.08;60.56
9281;BME280;4679;47.966;7.958;2023-04-23T10:11:24;96375.00;;;17.03;60.63
9281;BME280;4679;47.966;7.958;2023-04-23T10:13:26;96376.19;;;16.97;60.92
9281;BME280;4679;47.966;7.958;2023-04-23T10:15:28;96359.91;;;17.07;60.41
9281;BME280;4679;47.966;7.958;2023-04-23T10:17:31;96365.84;;;17.04;60.84
9281;BME280;4679;47.966;7.958;2023-04-23T10:19:36;96357.81;;;17.04;60.42
9281;BME280;4679;47.966;7.958;2023-04-23T10:21:40;96359.59;;;17.08;60.39
9281;BME280;4679;47.966;7.958;2023-04-23T10:23:56;96363.22;;;17.26;59.87
9281;BME280;4679;47.966;7.958;2023-04-23T10:26:00;96359.91;;;17.07;60.02
9281;BME280;4679;47.966;7.958;2023-04-23T10:28:05;96356.03;;;16.99;60.74
9281;BME280;4679;47.966;7.958;2023-04-23T10:30:09;96352.25;;;17.00;60.10
9281;BME280;4679;47.966;7.958;2023-04-23T10:32:11;96351.38;;;17.05;59.89
9281;BME280;4679;47.966;7.958;2023-04-23T10:34:14;96350.75;;;17.08;60.34
9281;BME280;4679;47.966;7.958;2023-04-23T10:36:16;96352.50;;;17.12;59.63
9281;BME280;4679;47.966;7.958;2023-04-23T10:38:22;96355.09;;;17.17;59.79
9281;BME280;4679;47.966;7.958;2023-04-23T10:40:29;96347.66;;;17.37;59.45
9281;BME280;4679;47.966;7.958;2023-04-23T10:42:32;96345.69;;;17.29;59.41
9281;BME280;4679;47.966;7.958;2023-04-23T10:44:36;96345.38;;;17.30;59.11
9281;BME280;4679;47.966;7.958;2023-04-23T10:46:38;96343.19;;;17.32;59.30
9281;BME280;4679;47.966;7.958;2023-04-23T10:48:50;96350.91;;;17.25;59.07
9281;BME280;4679;47.966;7.958;2023-04-23T10:51:05;96341.38;;;17.41;59.07
9281;BME280;4679;47.966;7.958;2023-04-23T10:53:17;96332.47;;;17.54;58.78
9281;BME280;4679;47.966;7.958;2023-04-23T10:55:20;96321.56;;;17.51;58.56
9281;BME280;4679;47.966;7.958;2023-04-23T10:57:23;96324.44;;;17.32;59.08
9281;BME280;4679;47.966;7.958;2023-04-23T10:59:25;96325.47;;;17.22;58.89
9281;BME280;4679;47.966;7.958;2023-04-23T11:01:29;96328.47;;;17.21;58.91
9281;BME280;4679;47.966;7.958;2023-04-23T11:03:35;96332.88;;;17.48;58.39
9281;BME280;4679;47.966;7.958;2023-04-23T11:05:39;96328.19;;;17.53;58.25
9281;BME280;4679;47.966;7.958;2023-04-23T11:07:41;96319.78;;;17.46;58.41
9281;BME280;4679;47.966;7.958;2023-04-23T11:09:44;96315.22;;;17.47;58.28
9281;BME280;4679;47.966;7.958;2023-04-23T11:11:47;96321.47;;;17.42;58.15
9281;BME280;4679;47.966;7.958;2023-04-23T11:13:53;96314.31;;;17.29;58.77
9281;BME280;4679;47.966;7.958;2023-04-23T11:16:13;96317.47;;;17.31;58.62
9281;BME280;4679;47.966;7.958;2023-04-23T11:18:15;96302.72;;;17.42;58.38
9281;BME280;4679;47.966;7.958;2023-04-23T11:20:18;96289.56;;;17.32;58.51
9281;BME280;4679;47.966;7.958;2023-04-23T11:22:20;96300.38;;;17.18;58.87
9281;BME280;4679;47.966;7.958;2023-04-23T11:24:24;96298.28;;;17.15;58.62
9281;BME280;4679;47.966;7.958;2023-04-23T11:26:27;96300.19;;;17.37;57.75
9281;BME280;4679;47.966;7.958;2023-04-23T11:28:31;96293.75;;;17.47;57.93
9281;BME280;4679;47.966;7.958;2023-04-23T11:30:36;96284.28;;;17.41;57.77
9281;BME280;4679;47.966;7.958;2023-04-23T11:32:38;96282.84;;;17.43;57.84
9281;BME280;4679;47.966;7.958;2023-04-23T11:34:43;96280.94;;;17.44;57.68
9281;BME280;4679;47.966;7.958;2023-04-23T11:36:46;96283.13;;;17.42;57.50
9281;BME280;4679;47.966;7.958;2023-04-23T11:38:48;96275.88;;;17.42;57.42
9281;BME280;4679;47.966;7.958;2023-04-23T11:40:50;96269.31;;;17.48;57.30
9281;BME280;4679;47.966;7.958;2023-04-23T11:42:53;96267.03;;;17.64;56.78
9281;BME280;4679;47.966;7.958;2023-04-23T11:44:55;96272.34;;;17.86;56.46
9281;BME280;4679;47.966;7.958;2023-04-23T11:46:59;96270.34;;;18.01;56.59
9281;BME280;4679;47.966;7.958;2023-04-23T11:49:02;96261.50;;;18.09;56.30
9281;BME280;4679;47.966;7.958;2023-04-23T11:51:03;96259.59;;;18.01;56.69
9281;BME280;4679;47.966;7.958;2023-04-23T11:53:06;96250.09;;;17.95;56.69
9281;BME280;4679;47.966;7.958;2023-04-23T11:55:08;96249.63;;;17.92;56.86
9281;BME280;4679;47.966;7.958;2023-04-23T11:57:10;96247.91;;;17.97;56.52
9281;BME280;4679;47.966;7.958;2023-04-23T11:59:13;96236.06;;;18.06;56.43
9281;BME280;4679;47.966;7.958;2023-04-23T12:01:15;96223.91;;;18.09;56.26
9281;BME280;4679;47.966;7.958;2023-04-23T12:03:18;96232.44;;;18.11;56.34
9281;BME280;4679;47.966;7.958;2023-04-23T12:05:21;96228.53;;;18.17;56.27
9281;BME280;4679;47.966;7.958;2023-04-23T12:07:30;96223.78;;;18.22;55.87
9281;BME280;4679;47.966;7.958;2023-04-23T12:09:32;96228.34;;;18.22;56.05
9281;BME280;4679;47.966;7.958;2023-04-23T12:11:35;96223.59;;;18.19;56.09
9281;BME280;4679;47.966;7.958;2023-04-23T12:13:38;96220.91;;;18.10;56.03
9281;BME280;4679;47.966;7.958;2023-04-23T12:15:46;96212.38;;;18.00;56.32
9281;BME280;4679;47.966;7.958;2023-04-23T12:17:48;96220.56;;;17.95;56.17
9281;BME280;4679;47.966;7.958;2023-04-23T12:19:52;96213.44;;;17.90;56.16
9281;BME280;4679;47.966;7.958;2023-04-23T12:21:57;96208.25;;;17.85;56.33
9281;BME280;4679;47.966;7.958;2023-04-23T12:24:02;96208.38;;;17.88;56.25
9281;BME280;4679;47.966;7.958;2023-04-23T12:26:09;96207.28;;;17.89;56.20
9281;BME280;4679;47.966;7.958;2023-04-23T12:28:11;96209.84;;;17.95;56.04
9281;BME280;4679;47.966;7.958;2023-04-23T12:30:13;96213.50;;;18.07;55.88
9281;BME280;4679;47.966;7.958;2023-04-23T12:32:14;96196.75;;;18.19;55.49
9281;BME280;4679;47.966;7.958;2023-04-23T12:34:19;96201.34;;;18.18;55.50
9281;BME280;4679;47.966;7.958;2023-04-23T12:36:26;96200.72;;;18.13;55.61
9281;BME280;4679;47.966;7.958;2023-04-23T12:38:29;96210.19;;;18.10;55.55
9281;BME280;4679;47.966;7.958;2023-04-23T12:40:31;96204.50;;;18.12;55.36
9281;BME280;4679;47.966;7.958;2023-04-23T12:42:33;96197.09;;;18.17;55.56
9281;BME280;4679;47.966;7.958;2023-04-23T12:44:37;96198.50;;;18.23;55.10
9281;BME280;4679;47.966;7.958;2023-04-23T12:46:39;96194.41;;;18.26;55.24
9281;BME280;4679;47.966;7.958;2023-04-23T12:48:40;96196.47;;;18.29;55.06
9281;BME280;4679;47.966;7.958;2023-04-23T12:50:43;96198.19;;;18.34;55.01
9281;BME280;4679;47.966;7.958;2023-04-23T12:52:46;96191.56;;;18.40;54.71
9281;BME280;4679;47.966;7.958;2023-04-23T12:54:48;96186.34;;;18.35;54.73
9281;BME280;4679;47.966;7.958;2023-04-23T12:56:52;96190.63;;;18.27;55.00
9281;BME280;4679;47.966;7.958;2023-04-23T12:58:53;96189.97;;;18.21;54.94
9281;BME280;4679;47.966;7.958;2023-04-23T13:00:55;96180.31;;;18.20;54.81
9281;BME280;4679;47.966;7.958;2023-04-23T13:02:57;96185.88;;;18.24;55.03
9281;BME280;4679;47.966;7.958;2023-04-23T13:04:59;96179.25;;;18.30;54.41
9281;BME280;4679;47.966;7.958;2023-04-23T13:07:01;96177.66;;;18.29;54.71
9281;BME280;4679;47.966;7.958;2023-04-23T13:09:04;96181.13;;;18.30;54.77
9281;BME280;4679;47.966;7.958;2023-04-23T13:11:09;96169.13;;;18.27;54.66
9281;BME280;4679;47.966;7.958;2023-04-23T13:13:11;96162.50;;;18.33;54.66
9281;BME280;4679;47.966;7.958;2023-04-23T13:15:12;96161.84;;;18.36;54.38
9281;BME280;4679;47.966;7.958;2023-04-23T13:17:14;96154.59;;;18.37;54.38
9281;BME280;4679;47.966;7.958;2023-04-23T13:19:16;96144.00;;;18.40;54.43
9281;BME280;4679;47.966;7.958;2023-04-23T13:21:18;96139.09;;;18.42;54.28
9281;BME280;4679;47.966;7.958;2023-04-23T13:23:20;96139.25;;;18.46;54.20
9281;BME280;4679;47.966;7.958;2023-04-23T13:25:23;96135.59;;;18.50;54.21
9281;BME280;4679;47.966;7.958;2023-04-23T13:27:26;96144.94;;;18.53;54.16
9281;BME280;4679;47.966;7.958;2023-04-23T13:29:28;96137.97;;;18.52;54.11
9281;BME280;4679;47.966;7.958;2023-04-23T13:31:30;96143.66;;;18.50;54.03
9281;BME280;4679;47.966;7.958;2023-04-23T13:33:32;96140.84;;;18.47;54.18
9281;BME280;4679;47.966;7.958;2023-04-23T13:35:34;96130.72;;;18.44;54.17
9281;BME280;4679;47.966;7.958;2023-04-23T13:37:37;96132.00;;;18.38;54.50
9281;BME280;4679;47.966;7.958;2023-04-23T13:39:41;96132.63;;;18.35;54.59
9281;BME280;4679;47.966;7.958;2023-04-23T13:41:44;96116.06;;;18.33;54.58
9281;BME280;4679;47.966;7.958;2023-04-23T13:43:45;96109.09;;;18.32;54.38
9281;BME280;4679;47.966;7.958;2023-04-23T13:45:47;96109.53;;;18.34;54.31
9281;BME280;4679;47.966;7.958;2023-04-23T13:47:49;96111.59;;;18.37;54.14
9281;BME280;4679;47.966;7.958;2023-04-23T13:49:51;96101.19;;;18.44;53.98
9281;BME280;4679;47.966;7.958;2023-04-23T13:51:53;96104.81;;;18.48;54.12
9281;BME280;4679;47.966;7.958;2023-04-23T13:53:58;96096.88;;;18.51;53.97
9281;BME280;4679;47.966;7.958;2023-04-23T13:56:00;96098.31;;;18.57;53.77
9281;BME280;4679;47.966;7.958;2023-04-23T13:58:03;96095.81;;;18.61;53.94
9281;BME280;4679;47.966;7.958;2023-04-23T14:00:06;96090.91;;;18.63;53.89
9281;BME280;4679;47.966;7.958;2023-04-23T14:02:07;96089.66;;;18.60;54.02
9281;BME280;4679;47.966;7.958;2023-04-23T14:04:09;96089.78;;;18.55;53.81
9281;BME280;4679;47.966;7.958;2023-04-23T14:06:11;96089.16;;;18.50;54.14
9281;BME280;4679;47.966;7.958;2023-04-23T14:08:13;96086.66;;;18.45;53.93
9281;BME280;4679;47.966;7.958;2023-04-23T14:10:14;96105.59;;;18.40;53.95
9281;BME280;4679;47.966;7.958;2023-04-23T14:12:16;96107.03;;;18.37;54.02
9281;BME280;4679;47.966;7.958;2023-04-23T14:14:19;96133.72;;;18.34;53.75
9281;BME280;4679;47.966;7.958;2023-04-23T14:16:20;96149.38;;;18.06;53.78
9281;BME280;4679;47.966;7.958;2023-04-23T14:18:22;96162.31;;;17.38;54.86
9281;BME280;4679;47.966;7.958;2023-04-23T14:20:24;96162.84;;;16.87;56.09
9281;BME280;4679;47.966;7.958;2023-04-23T14:22:26;96102.03;;;16.65;56.41
9281;BME280;4679;47.966;7.958;2023-04-23T14:24:32;96088.47;;;16.62;56.05
9281;BME280;4679;47.966;7.958;2023-04-23T14:26:35;96103.56;;;16.58;55.97
9281;BME280;4679;47.966;7.958;2023-04-23T14:28:39;96110.63;;;16.53;55.80
9281;BME280;4679;47.966;7.958;2023-04-23T14:30:42;96123.81;;;16.50;55.97
9281;BME280;4679;47.966;7.958;2023-04-23T14:32:44;96120.97;;;16.46;55.88
9281;BME280;4679;47.966;7.958;2023-04-23T14:34:46;96120.78;;;16.43;56.55
9281;BME280;4679;47.966;7.958;2023-04-23T14:36:48;96129.72;;;16.38;55.92
9281;BME280;4679;47.966;7.958;2023-04-23T14:38:49;96135.88;;;16.39;56.57
9281;BME280;4679;47.966;7.958;2023-04-23T14:40:51;96139.34;;;16.39;55.83
9281;BME280;4679;47.966;7.958;2023-04-23T14:42:53;96136.47;;;16.36;56.03
9281;BME280;4679;47.966;7.958;2023-04-23T14:44:57;96138.38;;;16.35;56.20
9281;BME280;4679;47.966;7.958;2023-04-23T14:47:01;96131.00;;;16.41;56.70
9281;BME280;4679;47.966;7.958;2023-04-23T14:49:03;96134.97;;;16.43;56.21
9281;BME280;4679;47.966;7.958;2023-04-23T14:51:04;96146.16;;;16.45;56.34
9281;BME280;4679;47.966;7.958;2023-04-23T14:53:06;96129.53;;;16.57;55.87
9281;BME280;4679;47.966;7.958;2023-04-23T14:55:09;96132.63;;;16.64;55.79
9281;BME280;4679;47.966;7.958;2023-04-23T14:57:11;96132.78;;;16.68;55.96
9281;BME280;4679;47.966;7.958;2023-04-23T14:59:13;96139.94;;;16.81;55.70
9281;BME280;4679;47.966;7.958;2023-04-23T15:01:14;96128.19;;;16.91;55.46
9281;BME280;4679;47.966;7.958;2023-04-23T15:03:18;96130.41;;;16.97;55.88
9281;BME280;4679;47.966;7.958;2023-04-23T15:05:20;96122.13;;;17.07;55.85
9281;BME280;4679;47.966;7.958;2023-04-23T15:07:22;96119.81;;;17.23;55.47
9281;BME280;4679;47.966;7.958;2023-04-23T15:09:23;96109.09;;;17.32;55.13
9281;BME280;4679;47.966;7.958;2023-04-23T15:11:25;96099.22;;;17.49;55.00
9281;BME280;4679;47.966;7.958;2023-04-23T15:13:36;96103.56;;;17.68;54.55
9281;BME280;4679;47.966;7.958;2023-04-23T15:15:42;96100.38;;;17.74;53.74
9281;BME280;4679;47.966;7.958;2023-04-23T15:17:44;96102.00;;;17.84;53.87
9281;BME280;4679;47.966;7.958;2023-04-23T15:19:47;96099.16;;;17.98;53.61
9281;BME280;4679;47.966;7.958;2023-04-23T15:21:49;96111.00;;;18.05;53.59
9281;BME280;4679;47.966;7.958;2023-04-23T15:23:51;96117.78;;;18.11;53.34
9281;BME280;4679;47.966;7.958;2023-04-23T15:25:53;96121.75;;;18.14;52.96
9281;BME280;4679;47.966;7.958;2023-04-23T15:27:55;96118.91;;;18.10;52.90
9281;BME280;4679;47.966;7.958;2023-04-23T15:29:57;96105.44;;;18.19;52.60
9281;BME280;4679;47.966;7.958;2023-04-23T15:31:59;96126.81;;;18.33;52.32
9281;BME280;4679;47.966;7.958;2023-04-23T15:34:00;96128.50;;;18.37;52.32
9281;BME280;4679;47.966;7.958;2023-04-23T15:36:04;96132.78;;;18.47;52.06
9281;BME280;4679;47.966;7.958;2023-04-23T15:38:05;96131.22;;;18.46;52.26
9281;BME280;4679;47.966;7.958;2023-04-23T15:40:08;96141.00;;;18.24;52.42
9281;BME280;4679;47.966;7.958;2023-04-23T15:42:11;96129.63;;;18.10;52.32
9281;BME280;4679;47.966;7.958;2023-04-23T15:44:14;96135.31;;;18.00;52.26
9281;BME280;4679;47.966;7.958;2023-04-23T15:46:16;96127.72;;;17.93;52.22
9281;BME280;4679;47.966;7.958;2023-04-23T15:48:18;96126.16;;;17.84;52.30
9281;BME280;4679;47.966;7.958;2023-04-23T15:50:20;96128.50;;;17.77;52.40
9281;BME280;4679;47.966;7.958;2023-04-23T15:52:27;96128.97;;;17.70;52.28
9281;BME280;4679;47.966;7.958;2023-04-23T15:54:29;96131.28;;;17.63;52.58
9281;BME280;4679;47.966;7.958;2023-04-23T15:56:30;96133.00;;;17.59;52.20
9281;BME280;4679;47.966;7.958;2023-04-23T15:58:32;96129.84;;;17.57;52.56
9281;BME280;4679;47.966;7.958;2023-04-23T16:00:33;96131.09;;;17.51;51.92
9281;BME280;4679;47.966;7.958;2023-04-23T16:02:35;96137.88;;;17.48;52.31
9281;BME280;4679;47.966;7.958;2023-04-23T16:04:37;96127.59;;;17.42;51.87
9281;BME280;4679;47.966;7.958;2023-04-23T16:06:38;96131.53;;;17.36;51.96
9281;BME280;4679;47.966;7.958;2023-04-23T16:08:41;96133.38;;;17.27;52.15
9281;BME280;4679;47.966;7.958;2023-04-23T16:10:43;96133.53;;;17.21;51.87
9281;BME280;4679;47.966;7.958;2023-04-23T16:12:45;96131.78;;;17.17;51.67
9281;BME280;4679;47.966;7.958;2023-04-23T16:14:47;96126.53;;;17.12;51.85
9281;BME280;4679;47.966;7.958;2023-04-23T16:16:49;96134.91;;;17.10;52.20
9281;BME280;4679;47.966;7.958;2023-04-23T16:18:51;96132.66;;;17.04;51.65
9281;BME280;4679;47.966;7.958;2023-04-23T16:20:53;96137.66;;;16.97;51.61
9281;BME280;4679;47.966;7.958;2023-04-23T16:22:54;96131.34;;;16.93;52.13
9281;BME280;4679;47.966;7.958;2023-04-23T16:24:57;96142.88;;;16.93;51.45
9281;BME280;4679;47.966;7.958;2023-04-23T16:26:59;96137.81;;;16.92;51.79
9281;BME280;4679;47.966;7.958;2023-04-23T16:29:02;96141.09;;;16.88;51.67
9281;BME280;4679;47.966;7.958;2023-04-23T16:31:04;96136.84;;;16.87;51.79
9281;BME280;4679;47.966;7.958;2023-04-23T16:33:06;96135.94;;;16.92;51.69
9281;BME280;4679;47.966;7.958;2023-04-23T16:35:08;96146.81;;;16.96;51.65
9281;BME280;4679;47.966;7.958;2023-04-23T16:37:10;96137.19;;;16.95;51.80
9281;BME280;4679;47.966;7.958;2023-04-23T16:39:15;96138.31;;;16.94;51.61
9281;BME280;4679;47.966;7.958;2023-04-23T16:41:18;96138.13;;;16.90;51.63
9281;BME280;4679;47.966;7.958;2023-04-23T16:43:19;96130.81;;;16.82;51.39
9281;BME280;4679;47.966;7.958;2023-04-23T16:45:21;96125.59;;;16.77;51.18
9281;BME280;4679;47.966;7.958;2023-04-23T16:47:23;96129.19;;;16.72;51.69
9281;BME280;4679;47.966;7.958;2023-04-23T16:49:24;96127.41;;;16.68;51.22
9281;BME280;4679;47.966;7.958;2023-04-23T16:51:26;96132.63;;;16.64;51.59
9281;BME280;4679;47.966;7.958;2023-04-23T16:53:29;96140.75;;;16.59;51.89
9281;BME280;4679;47.966;7.958;2023-04-23T16:55:30;96143.34;;;16.50;51.77
9281;BME280;4679;47.966;7.958;2023-04-23T16:57:35;96148.56;;;16.47;52.02
9281;BME280;4679;47.966;7.958;2023-04-23T16:59:37;96142.03;;;16.39;51.68
9281;BME280;4679;47.966;7.958;2023-04-23T17:01:40;96146.22;;;16.32;51.61
9281;BME280;4679;47.966;7.958;2023-04-23T17:03:41;96145.84;;;16.25;51.75
9281;BME280;4679;47.966;7.958;2023-04-23T17:05:44;96144.69;;;16.17;52.21
9281;BME280;4679;47.966;7.958;2023-04-23T17:07:48;96150.47;;;16.10;52.49
9281;BME280;4679;47.966;7.958;2023-04-23T17:09:50;96148.69;;;16.06;52.72
9281;BME280;4679;47.966;7.958;2023-04-23T17:11:52;96142.88;;;16.04;52.07
9281;BME280;4679;47.966;7.958;2023-04-23T17:13:56;96145.53;;;16.04;52.83
9281;BME280;4679;47.966;7.958;2023-04-23T17:15:58;96144.56;;;16.00;52.27
9281;BME280;4679;47.966;7.958;2023-04-23T17:17:59;96137.63;;;15.99;52.77
9281;BME280;4679;47.966;7.958;2023-04-23T17:20:01;96128.31;;;15.96;52.53